Time,TemperatureF,DewpointF,PressureIn,WindDirection,WindDirectionDegrees,WindSpeedMPH,WindSpeedGustMPH,Humidity,HourlyPrecipIn,Conditions,Clouds,dailyrainin,SoftwareType,DateUTC
2013-02-07 00:01:00,51.0,31.0,30.18,North,0,0.0,1.0,47,0.00,,,-99.99,,2013-02-07 08:01:00,
2013-02-07 00:31:00,51.0,33.0,30.18,North,-999,0.0,0.0,49,0.00,,,-99.99,,2013-02-07 08:31:00,
2013-02-07 00:42:00,51.0,32.0,30.17,North,-999,0.0,0.0,48,0.00,,,-99.99,,2013-02-07 08:42:00,
2013-02-07 00:52:00,51.0,32.0,30.17,North,-999,0.0,0.0,48,0.00,,,-99.99,,2013-02-07 08:52:00,
2013-02-07 01:01:00,51.0,34.0,30.17,North,-999,0.0,0.0,53,0.00,,,-99.99,,2013-02-07 09:01:00,
2013-02-07 01:11:00,51.0,33.0,30.17,North,-999,0.0,0.0,49,0.00,,,-99.99,,2013-02-07 09:11:00,
2013-02-07 01:21:00,51.0,33.0,30.17,North,-999,0.0,0.0,49,0.00,,,-99.99,,2013-02-07 09:21:00,
2013-02-07 01:31:00,51.0,35.0,30.17,North,-999,0.0,0.0,55,0.00,,,-99.99,,2013-02-07 09:31:00,
2013-02-07 01:41:00,51.0,34.0,30.17,North,-999,0.0,0.0,53,0.00,,,-99.99,,2013-02-07 09:41:00,
2013-02-07 01:52:00,51.0,34.0,30.17,North,-999,0.0,0.0,53,0.00,,,-99.99,,2013-02-07 09:52:00,
2013-02-07 02:01:00,51.0,31.0,30.16,North,-999,0.0,0.0,47,0.00,,,-99.99,,2013-02-07 10:01:00,
2013-02-07 02:11:00,52.0,31.0,30.16,North,-999,0.0,0.0,44,0.00,,,-99.99,,2013-02-07 10:11:00,
2013-02-07 02:22:00,52.0,31.0,30.16,North,-999,0.0,0.0,44,0.00,,,-99.99,,2013-02-07 10:22:00,
2013-02-07 02:31:00,53.0,26.0,30.16,North,-999,0.0,0.0,35,0.00,,,-99.99,,2013-02-07 10:31:00,
2013-02-07 02:41:00,53.0,30.0,30.16,North,0,0.0,3.0,41,0.00,,,-99.99,,2013-02-07 10:41:00,
2013-02-07 02:52:00,53.0,30.0,30.16,North,0,0.0,3.0,41,0.00,,,-99.99,,2013-02-07 10:52:00,
2013-02-07 03:01:00,52.0,34.0,30.16,ENE,70,1.0,3.0,51,0.00,,,-99.99,,2013-02-07 11:01:00,
2013-02-07 03:11:00,52.0,31.0,30.15,North,0,0.0,3.0,45,0.00,,,-99.99,,2013-02-07 11:11:00,
2013-02-07 03:22:00,52.0,31.0,30.15,North,0,0.0,3.0,45,0.00,,,-99.99,,2013-02-07 11:22:00,
2013-02-07 03:32:00,51.0,35.0,30.15,North,-999,0.0,0.0,55,0.00,,,-99.99,,2013-02-07 11:32:00,
2013-02-07 03:43:00,50.0,36.0,30.14,North,0,0.0,1.0,58,0.00,,,-99.99,,2013-02-07 11:43:00,
2013-02-07 03:52:00,50.0,36.0,30.14,North,0,0.0,1.0,58,0.00,,,-99.99,,2013-02-07 11:52:00,
2013-02-07 04:01:00,50.0,36.0,30.14,North,-999,0.0,0.0,59,0.00,,,-99.99,,2013-02-07 12:01:00,
2013-02-07 04:11:00,49.0,39.0,30.13,North,-999,0.0,0.0,68,0.00,,,-99.99,,2013-02-07 12:11:00,
2013-02-07 04:22:00,49.0,39.0,30.13,North,-999,0.0,0.0,68,0.00,,,-99.99,,2013-02-07 12:22:00,
2013-02-07 04:32:00,48.0,38.0,30.13,North,-999,0.0,0.0,68,0.00,,,-99.99,,2013-02-07 12:32:00,
2013-02-07 04:42:00,48.0,38.0,30.13,North,-999,0.0,0.0,68,0.00,,,-99.99,,2013-02-07 12:42:00,
2013-02-07 04:53:00,48.0,38.0,30.13,North,-999,0.0,0.0,68,0.00,,,-99.99,,2013-02-07 12:53:00,
2013-02-07 05:02:00,46.0,34.0,30.12,North,-999,0.0,0.0,63,0.00,,,-99.99,,2013-02-07 13:02:00,
2013-02-07 05:32:00,47.0,36.0,30.12,North,-999,0.0,0.0,66,0.00,,,-99.99,,2013-02-07 13:32:00,
2013-02-07 05:42:00,47.0,37.0,30.12,North,-999,0.0,0.0,67,0.00,,,-99.99,,2013-02-07 13:42:00,
2013-02-07 05:52:00,47.0,37.0,30.12,North,-999,0.0,0.0,67,0.00,,,-99.99,,2013-02-07 13:52:00,
2013-02-07 06:01:00,46.0,39.0,30.12,North,-999,0.0,0.0,76,0.00,,,-99.99,,2013-02-07 14:01:00,
2013-02-07 06:11:00,46.0,41.0,30.12,SSW,200,1.0,1.0,83,0.00,,,-99.99,,2013-02-07 14:11:00,
2013-02-07 06:21:00,46.0,41.0,30.12,SSW,200,1.0,1.0,83,0.00,,,-99.99,,2013-02-07 14:21:00,
2013-02-07 06:32:00,45.0,39.0,30.12,North,-999,0.0,0.0,79,0.00,,,-99.99,,2013-02-07 14:32:00,
2013-02-07 06:41:00,45.0,39.0,30.12,North,-999,0.0,0.0,79,0.00,,,-99.99,,2013-02-07 14:41:00,
2013-02-07 06:52:00,45.0,39.0,30.12,North,-999,0.0,0.0,79,0.00,,,-99.99,,2013-02-07 14:52:00,
2013-02-07 07:01:00,45.0,41.0,30.12,North,-999,0.0,0.0,86,0.00,,,-99.99,,2013-02-07 15:01:00,
2013-02-07 07:32:00,44.0,40.0,30.13,North,-999,0.0,0.0,86,0.00,,,-99.99,,2013-02-07 15:32:00,
2013-02-07 07:42:00,44.0,40.0,30.13,North,-999,0.0,0.0,86,0.00,,,-99.99,,2013-02-07 15:42:00,
2013-02-07 07:52:00,44.0,40.0,30.13,North,-999,0.0,0.0,86,0.00,,,-99.99,,2013-02-07 15:52:00,
2013-02-07 08:01:00,44.0,41.0,30.13,North,-999,0.0,0.0,90,0.00,,,-99.99,,2013-02-07 16:01:00,
2013-02-07 08:31:00,45.0,42.0,30.13,North,-999,0.0,0.0,89,0.00,,,-99.99,,2013-02-07 16:31:00,
2013-02-07 08:42:00,45.0,42.0,30.13,North,-999,0.0,0.0,89,0.00,,,-99.99,,2013-02-07 16:42:00,
2013-02-07 08:52:00,45.0,42.0,30.13,North,-999,0.0,0.0,89,0.00,,,-99.99,,2013-02-07 16:52:00,
2013-02-07 09:01:00,46.0,43.0,30.14,North,-999,0.0,0.0,88,0.00,,,-99.99,,2013-02-07 17:01:00,
2013-02-07 09:31:00,47.0,43.0,30.14,North,0,0.0,1.0,86,0.00,,,-99.99,,2013-02-07 17:31:00,
2013-02-07 09:43:00,47.0,43.0,30.14,North,0,0.0,1.0,86,0.00,,,-99.99,,2013-02-07 17:43:00,
2013-02-07 09:52:00,47.0,43.0,30.14,North,0,0.0,1.0,86,0.00,,,-99.99,,2013-02-07 17:52:00,
2013-02-07 10:01:00,48.0,42.0,30.15,North,-999,0.0,0.0,80,0.00,,,-99.99,,2013-02-07 18:01:00,
2013-02-07 10:11:00,48.0,42.0,30.15,North,-999,0.0,0.0,80,0.00,,,-99.99,,2013-02-07 18:11:00,
2013-02-07 10:23:00,48.0,42.0,30.15,North,-999,0.0,0.0,80,0.00,,,-99.99,,2013-02-07 18:23:00,
2013-02-07 10:31:00,48.0,40.0,30.15,North,0,0.0,1.0,73,0.00,,,-99.99,,2013-02-07 18:31:00,
2013-02-07 10:42:00,48.0,40.0,30.15,North,0,0.0,1.0,73,0.00,,,-99.99,,2013-02-07 18:42:00,
2013-02-07 10:52:00,48.0,40.0,30.15,North,0,0.0,1.0,73,0.00,,,-99.99,,2013-02-07 18:52:00,
2013-02-07 11:01:00,48.0,40.0,30.15,North,0,0.0,2.0,74,0.00,,,-99.99,,2013-02-07 19:01:00,
2013-02-07 11:11:00,48.0,40.0,30.15,North,0,0.0,2.0,74,0.00,,,-99.99,,2013-02-07 19:11:00,
2013-02-07 11:22:00,48.0,40.0,30.15,North,0,0.0,2.0,74,0.00,,,-99.99,,2013-02-07 19:22:00,
2013-02-07 11:31:00,48.0,40.0,30.14,North,0,0.0,1.0,73,0.00,,,-99.99,,2013-02-07 19:31:00,
2013-02-07 11:42:00,48.0,40.0,30.14,North,0,0.0,1.0,73,0.00,,,-99.99,,2013-02-07 19:42:00,
2013-02-07 11:52:00,48.0,40.0,30.14,North,0,0.0,1.0,73,0.00,,,-99.99,,2013-02-07 19:52:00,
2013-02-07 12:01:00,49.0,44.0,30.11,North,-999,0.0,0.0,84,0.00,,,-99.99,,2013-02-07 20:01:00,
2013-02-07 12:11:00,49.0,43.0,30.12,West,260,1.0,3.0,81,0.00,,,-99.99,,2013-02-07 20:11:00,
2013-02-07 12:21:00,49.0,43.0,30.12,West,260,1.0,3.0,81,0.00,,,-99.99,,2013-02-07 20:21:00,
2013-02-07 12:31:00,49.0,44.0,30.11,North,-999,0.0,0.0,84,0.00,,,-99.99,,2013-02-07 20:31:00,
2013-02-07 12:42:00,49.0,44.0,30.11,North,-999,0.0,0.0,84,0.00,,,-99.99,,2013-02-07 20:42:00,
2013-02-07 12:52:00,49.0,44.0,30.11,North,-999,0.0,0.0,84,0.00,,,-99.99,,2013-02-07 20:52:00,
2013-02-07 13:11:00,52.0,45.0,30.07,North,0,0.0,4.0,78,0.00,,,-99.99,,2013-02-07 21:11:00,
2013-02-07 13:21:00,52.0,45.0,30.07,North,0,0.0,4.0,78,0.00,,,-99.99,,2013-02-07 21:21:00,
2013-02-07 13:31:00,50.0,45.0,30.06,North,-999,0.0,0.0,82,0.00,,,-99.99,,2013-02-07 21:31:00,
2013-02-07 13:41:00,50.0,45.0,30.06,North,-999,0.0,0.0,82,0.00,,,-99.99,,2013-02-07 21:41:00,
2013-02-07 13:52:00,50.0,45.0,30.06,North,-999,0.0,0.0,82,0.00,,,-99.99,,2013-02-07 21:52:00,
2013-02-07 14:01:00,48.0,43.0,30.04,SW,220,1.0,6.0,84,0.00,,,-99.99,,2013-02-07 22:01:00,
2013-02-07 14:11:00,48.0,43.0,30.04,SW,220,1.0,6.0,84,0.00,,,-99.99,,2013-02-07 22:11:00,
2013-02-07 14:21:00,48.0,43.0,30.04,SW,220,1.0,6.0,84,0.00,,,-99.99,,2013-02-07 22:21:00,
2013-02-07 14:31:00,47.0,43.0,30.03,SSW,210,2.0,5.0,87,0.00,,,-99.99,,2013-02-07 22:31:00,
2013-02-07 14:42:00,47.0,43.0,30.03,SSW,210,2.0,5.0,87,0.00,,,-99.99,,2013-02-07 22:42:00,
2013-02-07 14:52:00,47.0,43.0,30.03,SSW,210,2.0,5.0,87,0.00,,,-99.99,,2013-02-07 22:52:00,
2013-02-07 15:01:00,45.0,43.0,30.04,SW,220,5.0,8.0,91,0.00,,,-99.99,,2013-02-07 23:01:00,
2013-02-07 15:11:00,45.0,43.0,30.04,SW,220,5.0,8.0,91,0.00,,,-99.99,,2013-02-07 23:11:00,
2013-02-07 15:21:00,45.0,43.0,30.04,SW,220,5.0,8.0,91,0.00,,,-99.99,,2013-02-07 23:21:00,
2013-02-07 15:31:00,45.0,43.0,30.04,SW,220,2.0,5.0,93,0.00,,,-99.99,,2013-02-07 23:31:00,
2013-02-07 15:42:00,45.0,43.0,30.04,SW,220,2.0,5.0,93,0.00,,,-99.99,,2013-02-07 23:42:00,
2013-02-07 15:52:00,45.0,43.0,30.04,SW,220,2.0,5.0,93,0.00,,,-99.99,,2013-02-07 23:52:00,
2013-02-07 16:01:00,45.0,43.0,30.03,North,-999,0.0,0.0,93,0.00,,,-99.99,,2013-02-08 00:01:00,
2013-02-07 16:11:00,45.0,43.0,30.03,North,-999,0.0,0.0,93,0.00,,,-99.99,,2013-02-08 00:11:00,
2013-02-07 16:21:00,45.0,43.0,30.03,North,-999,0.0,0.0,93,0.00,,,-99.99,,2013-02-08 00:21:00,
2013-02-07 16:31:00,46.0,44.0,30.03,North,-999,0.0,0.0,91,0.00,,,-99.99,,2013-02-08 00:31:00,
2013-02-07 16:42:00,46.0,44.0,30.03,North,-999,0.0,0.0,91,0.00,,,-99.99,,2013-02-08 00:42:00,
2013-02-07 16:52:00,46.0,44.0,30.03,North,-999,0.0,0.0,91,0.00,,,-99.99,,2013-02-08 00:52:00,
2013-02-07 17:01:00,46.0,43.0,30.02,North,-999,0.0,0.0,90,0.00,,,-99.99,,2013-02-08 01:01:00,
2013-02-07 17:11:00,46.0,43.0,30.02,North,-999,0.0,0.0,90,0.00,,,-99.99,,2013-02-08 01:11:00,
2013-02-07 17:21:00,46.0,43.0,30.02,North,-999,0.0,0.0,90,0.00,,,-99.99,,2013-02-08 01:21:00,
2013-02-07 17:31:00,44.0,42.0,30.02,SW,230,3.0,5.0,92,0.00,,,-99.99,,2013-02-08 01:31:00,
2013-02-07 17:42:00,44.0,42.0,30.02,SW,230,3.0,5.0,92,0.00,,,-99.99,,2013-02-08 01:42:00,
2013-02-07 17:52:00,44.0,42.0,30.02,SW,230,3.0,5.0,92,0.00,,,-99.99,,2013-02-08 01:52:00,
2013-02-07 18:01:00,43.0,41.0,30.02,SW,230,3.0,4.0,94,0.00,,,-99.99,,2013-02-08 02:01:00,
2013-02-07 18:11:00,43.0,41.0,30.02,SW,230,3.0,4.0,94,0.00,,,-99.99,,2013-02-08 02:11:00,
2013-02-07 18:21:00,43.0,41.0,30.02,SW,230,3.0,4.0,94,0.00,,,-99.99,,2013-02-08 02:21:00,
2013-02-07 18:31:00,43.0,41.0,30.02,North,-999,0.0,0.0,94,0.00,,,-99.99,,2013-02-08 02:31:00,
2013-02-07 18:42:00,43.0,41.0,30.02,North,-999,0.0,0.0,94,0.00,,,-99.99,,2013-02-08 02:42:00,
2013-02-07 18:52:00,43.0,41.0,30.02,North,-999,0.0,0.0,94,0.00,,,-99.99,,2013-02-08 02:52:00,
2013-02-07 19:01:00,43.0,41.0,30.01,North,-999,0.0,0.0,93,0.00,,,-99.99,,2013-02-08 03:01:00,
2013-02-07 19:12:00,43.0,41.0,30.01,North,-999,0.0,0.0,93,0.00,,,-99.99,,2013-02-08 03:12:00,
2013-02-07 19:22:00,43.0,41.0,30.01,North,-999,0.0,0.0,93,0.00,,,-99.99,,2013-02-08 03:22:00,
2013-02-07 19:31:00,43.0,40.0,30.02,North,0,0.0,1.0,90,0.00,,,-99.99,,2013-02-08 03:31:00,
2013-02-07 19:42:00,43.0,40.0,30.02,North,0,0.0,1.0,90,0.00,,,-99.99,,2013-02-08 03:42:00,
2013-02-07 19:52:00,43.0,40.0,30.02,North,0,0.0,1.0,90,0.00,,,-99.99,,2013-02-08 03:52:00,
2013-02-07 20:01:00,44.0,41.0,30.02,West,260,1.0,4.0,88,0.00,,,-99.99,,2013-02-08 04:01:00,
2013-02-07 20:11:00,44.0,41.0,30.02,West,260,1.0,4.0,88,0.00,,,-99.99,,2013-02-08 04:11:00,
2013-02-07 20:21:00,44.0,41.0,30.02,West,260,1.0,4.0,88,0.00,,,-99.99,,2013-02-08 04:21:00,
2013-02-07 20:31:00,43.0,39.0,30.02,West,260,1.0,3.0,87,0.00,,,-99.99,,2013-02-08 04:31:00,
2013-02-07 20:42:00,43.0,39.0,30.02,West,260,1.0,3.0,87,0.00,,,-99.99,,2013-02-08 04:42:00,
2013-02-07 20:52:00,43.0,39.0,30.02,West,260,1.0,3.0,87,0.00,,,-99.99,,2013-02-08 04:52:00,
2013-02-07 21:01:00,43.0,39.0,30.02,WSW,250,4.0,4.0,86,0.00,,,-99.99,,2013-02-08 05:01:00,
2013-02-07 21:11:00,43.0,39.0,30.02,WSW,240,2.0,5.0,86,0.00,,,-99.99,,2013-02-08 05:11:00,
2013-02-07 21:22:00,43.0,39.0,30.02,WSW,240,2.0,5.0,86,0.00,,,-99.99,,2013-02-08 05:22:00,
2013-02-07 21:31:00,42.0,38.0,30.02,North,0,0.0,1.0,86,0.00,,,-99.99,,2013-02-08 05:31:00,
2013-02-07 21:41:00,42.0,38.0,30.02,North,0,0.0,1.0,86,0.00,,,-99.99,,2013-02-08 05:41:00,
2013-02-07 21:52:00,42.0,38.0,30.02,North,0,0.0,1.0,86,0.00,,,-99.99,,2013-02-08 05:52:00,
2013-02-07 22:01:00,42.0,38.0,30.02,North,-999,0.0,0.0,87,0.00,,,-99.99,,2013-02-08 06:01:00,
2013-02-07 22:11:00,42.0,39.0,30.03,North,0,0.0,1.0,88,0.00,,,-99.99,,2013-02-08 06:11:00,
2013-02-07 22:21:00,42.0,39.0,30.03,North,0,0.0,1.0,88,0.00,,,-99.99,,2013-02-08 06:21:00,
2013-02-07 22:31:00,41.0,39.0,30.03,North,0,0.0,1.0,92,0.00,,,-99.99,,2013-02-08 06:31:00,
2013-02-07 22:41:00,41.0,39.0,30.04,North,0,0.0,2.0,93,0.00,,,-99.99,,2013-02-08 06:41:00,
2013-02-07 22:52:00,41.0,39.0,30.04,North,0,0.0,2.0,93,0.00,,,-99.99,,2013-02-08 06:52:00,
2013-02-07 23:01:00,41.0,39.0,30.03,North,-999,0.0,0.0,93,0.00,,,-99.99,,2013-02-08 07:01:00,
2013-02-07 23:11:00,41.0,39.0,30.03,North,-999,0.0,0.0,93,0.00,,,-99.99,,2013-02-08 07:11:00,
2013-02-07 23:21:00,41.0,39.0,30.03,North,-999,0.0,0.0,93,0.00,,,-99.99,,2013-02-08 07:21:00,
2013-02-07 23:31:00,42.0,38.0,30.02,North,-999,0.0,0.0,87,0.00,,,-99.99,,2013-02-08 07:31:00,
2013-02-07 23:42:00,42.0,38.0,30.02,North,-999,0.0,0.0,87,0.00,,,-99.99,,2013-02-08 07:42:00,
2013-02-07 23:52:00,42.0,38.0,30.02,North,-999,0.0,0.0,87,0.00,,,-99.99,,2013-02-08 07:52:00,